sensor_id;sensor_type;location;lat;lon;timestamp;pressure;altitude;pressure_sealevel;temperature;humidity
20105;BME280;10212;42.714;23.310;2022-10-20T00:03:12;95668.03;;;12.84;78.80
20105;BME280;10212;42.714;23.310;2022-10-20T00:08:12;95671.22;;;12.79;79.33
20105;BME280;10212;42.714;23.310;2022-10-20T00:13:15;95670.44;;;12.78;79.34
20105;BME280;10212;42.714;23.310;2022-10-20T00:18:15;95671.44;;;12.77;79.20
20105;BME280;10212;42.714;23.310;2022-10-20T00:23:16;95667.41;;;12.88;78.38
20105;BME280;10212;42.714;23.310;2022-10-20T00:28:16;95668.59;;;12.79;78.00
20105;BME280;10212;42.714;23.310;2022-10-20T00:33:18;95656.53;;;12.85;76.80
20105;BME280;10212;42.714;23.310;2022-10-20T00:38:18;95648.09;;;12.69;76.72
20105;BME280;10212;42.714;23.310;2022-10-20T00:43:21;95641.25;;;12.82;75.50
20105;BME280;10212;42.714;23.310;2022-10-20T00:48:24;95642.88;;;12.69;75.25
20105;BME280;10212;42.714;23.310;2022-10-20T00:53:27;95647.69;;;12.59;75.65
20105;BME280;10212;42.714;23.310;2022-10-20T00:58:29;95651.72;;;12.61;75.03
20105;BME280;10212;42.714;23.310;2022-10-20T01:03:43;95649.91;;;12.48;74.29
20105;BME280;10212;42.714;23.310;2022-10-20T01:08:44;95650.69;;;12.49;73.75
20105;BME280;10212;42.714;23.310;2022-10-20T01:24:30;95664.97;;;12.26;74.59
20105;BME280;10212;42.714;23.310;2022-10-20T01:29:36;95652.09;;;12.11;74.50
20105;BME280;10212;42.714;23.310;2022-10-20T01:34:47;95652.44;;;12.08;74.43
20105;BME280;10212;42.714;23.310;2022-10-20T01:39:53;95655.47;;;12.04;74.82
20105;BME280;10212;42.714;23.310;2022-10-20T01:44:57;95649.16;;;11.78;75.88
20105;BME280;10212;42.714;23.310;2022-10-20T01:49:58;95666.06;;;11.82;76.08
20105;BME280;10212;42.714;23.310;2022-10-20T01:55:00;95663.00;;;11.65;76.74
20105;BME280;10212;42.714;23.310;2022-10-20T02:05:13;95676.72;;;11.39;78.01
20105;BME280;10212;42.714;23.310;2022-10-20T02:10:18;95683.03;;;11.16;78.96
20105;BME280;10212;42.714;23.310;2022-10-20T02:15:21;95679.19;;;11.12;79.00
20105;BME280;10212;42.714;23.310;2022-10-20T02:20:23;95686.13;;;10.97;80.17
20105;BME280;10212;42.714;23.310;2022-10-20T02:25:25;95695.63;;;10.77;81.59
20105;BME280;10212;42.714;23.310;2022-10-20T02:30:27;95690.09;;;10.65;81.92
20105;BME280;10212;42.714;23.310;2022-10-20T02:35:30;95698.53;;;10.67;81.23
20105;BME280;10212;42.714;23.310;2022-10-20T02:40:31;95701.31;;;10.65;82.25
20105;BME280;10212;42.714;23.310;2022-10-20T02:45:33;95700.78;;;10.70;82.42
20105;BME280;10212;42.714;23.310;2022-10-20T02:50:33;95699.53;;;10.66;82.12
20105;BME280;10212;42.714;23.310;2022-10-20T02:55:36;95704.31;;;10.62;82.22
20105;BME280;10212;42.714;23.310;2022-10-20T03:00:39;95706.63;;;10.50;82.91
20105;BME280;10212;42.714;23.310;2022-10-20T03:05:41;95708.97;;;10.45;82.53
20105;BME280;10212;42.714;23.310;2022-10-20T03:10:43;95714.16;;;10.45;82.88
20105;BME280;10212;42.714;23.310;2022-10-20T03:15:45;95712.47;;;10.37;82.74
20105;BME280;10212;42.714;23.310;2022-10-20T03:20:51;95708.81;;;10.31;82.77
20105;BME280;10212;42.714;23.310;2022-10-20T03:25:59;95714.78;;;10.25;83.62
20105;BME280;10212;42.714;23.310;2022-10-20T03:31:11;95726.09;;;10.32;83.67
20105;BME280;10212;42.714;23.310;2022-10-20T03:36:11;95727.25;;;10.30;83.19
20105;BME280;10212;42.714;23.310;2022-10-20T03:41:12;95732.41;;;10.23;83.61
20105;BME280;10212;42.714;23.310;2022-10-20T03:46:12;95731.41;;;10.24;83.46
20105;BME280;10212;42.714;23.310;2022-10-20T03:51:13;95741.41;;;10.20;83.68
20105;BME280;10212;42.714;23.310;2022-10-20T03:56:15;95745.91;;;10.11;84.49
20105;BME280;10212;42.714;23.310;2022-10-20T04:01:17;95745.94;;;9.96;85.22
20105;BME280;10212;42.714;23.310;2022-10-20T04:06:17;95744.72;;;9.77;86.08
20105;BME280;10212;42.714;23.310;2022-10-20T04:11:18;95752.25;;;9.72;86.28
20105;BME280;10212;42.714;23.310;2022-10-20T04:16:18;95749.47;;;9.88;85.05
20105;BME280;10212;42.714;23.310;2022-10-20T04:21:19;95751.69;;;9.92;84.91
20105;BME280;10212;42.714;23.310;2022-10-20T04:26:19;95753.72;;;9.74;86.04
20105;BME280;10212;42.714;23.310;2022-10-20T04:31:19;95752.06;;;9.88;85.66
20105;BME280;10212;42.714;23.310;2022-10-20T04:36:19;95752.53;;;9.77;85.90
20105;BME280;10212;42.714;23.310;2022-10-20T04:41:20;95753.34;;;9.77;85.65
20105;BME280;10212;42.714;23.310;2022-10-20T04:46:20;95757.09;;;9.75;86.07
20105;BME280;10212;42.714;23.310;2022-10-20T04:51:20;95764.00;;;9.68;86.51
20105;BME280;10212;42.714;23.310;2022-10-20T04:56:21;95764.00;;;9.68;86.35
20105;BME280;10212;42.714;23.310;2022-10-20T05:01:23;95765.47;;;9.70;86.53
20105;BME280;10212;42.714;23.310;2022-10-20T05:06:25;95772.91;;;9.58;87.26
20105;BME280;10212;42.714;23.310;2022-10-20T05:11:26;95779.47;;;9.54;87.22
20105;BME280;10212;42.714;23.310;2022-10-20T05:16:26;95778.66;;;9.53;87.78
20105;BME280;10212;42.714;23.310;2022-10-20T05:21:28;95789.00;;;9.62;87.83
20105;BME280;10212;42.714;23.310;2022-10-20T05:26:29;95789.09;;;9.69;87.69
20105;BME280;10212;42.714;23.310;2022-10-20T05:31:35;95799.03;;;9.80;87.01
20105;BME280;10212;42.714;23.310;2022-10-20T05:36:35;95818.44;;;9.93;86.51
20105;BME280;10212;42.714;23.310;2022-10-20T05:41:36;95825.81;;;10.04;85.85
20105;BME280;10212;42.714;23.310;2022-10-20T05:46:36;95837.84;;;10.05;85.89
20105;BME280;10212;42.714;23.310;2022-10-20T05:51:40;95856.34;;;10.25;85.39
20105;BME280;10212;42.714;23.310;2022-10-20T05:56:40;95859.13;;;10.24;85.62
20105;BME280;10212;42.714;23.310;2022-10-20T06:01:41;95871.16;;;10.25;85.76
20105;BME280;10212;42.714;23.310;2022-10-20T06:06:47;95882.50;;;10.32;85.68
20105;BME280;10212;42.714;23.310;2022-10-20T06:11:48;95890.13;;;10.34;85.96
20105;BME280;10212;42.714;23.310;2022-10-20T06:16:49;95886.44;;;10.58;85.15
20105;BME280;10212;42.714;23.310;2022-10-20T06:21:50;95893.63;;;10.56;86.05
20105;BME280;10212;42.714;23.310;2022-10-20T06:26:51;95902.97;;;10.66;85.41
20105;BME280;10212;42.714;23.310;2022-10-20T06:31:51;95914.81;;;10.83;85.34
20105;BME280;10212;42.714;23.310;2022-10-20T06:36:53;95916.97;;;11.39;82.87
20105;BME280;10212;42.714;23.310;2022-10-20T06:41:54;95908.81;;;11.77;81.27
20105;BME280;10212;42.714;23.310;2022-10-20T06:46:54;95914.25;;;11.54;81.52
20105;BME280;10212;42.714;23.310;2022-10-20T06:51:55;95920.69;;;11.29;82.03
20105;BME280;10212;42.714;23.310;2022-10-20T06:56:55;95925.59;;;11.17;82.13
20105;BME280;10212;42.714;23.310;2022-10-20T07:01:55;95924.16;;;10.93;82.96
20105;BME280;10212;42.714;23.310;2022-10-20T07:06:56;95937.69;;;11.03;83.02
20105;BME280;10212;42.714;23.310;2022-10-20T07:11:56;95935.72;;;11.27;81.11
20105;BME280;10212;42.714;23.310;2022-10-20T07:16:57;95932.19;;;11.35;80.82
20105;BME280;10212;42.714;23.310;2022-10-20T07:21:57;95944.19;;;11.51;79.96
20105;BME280;10212;42.714;23.310;2022-10-20T07:26:57;95933.91;;;11.50;79.98
20105;BME280;10212;42.714;23.310;2022-10-20T07:31:58;95935.59;;;11.57;79.76
20105;BME280;10212;42.714;23.310;2022-10-20T07:36:58;95932.56;;;11.82;78.26
20105;BME280;10212;42.714;23.310;2022-10-20T07:41:59;95931.25;;;11.65;78.71
20105;BME280;10212;42.714;23.310;2022-10-20T07:46:59;95930.13;;;11.74;77.47
20105;BME280;10212;42.714;23.310;2022-10-20T07:52:00;95927.91;;;11.49;77.60
20105;BME280;10212;42.714;23.310;2022-10-20T07:57:00;95926.00;;;11.43;77.90
20105;BME280;10212;42.714;23.310;2022-10-20T08:02:00;95921.84;;;11.70;76.50
20105;BME280;10212;42.714;23.310;2022-10-20T08:07:01;95925.22;;;11.93;75.36
20105;BME280;10212;42.714;23.310;2022-10-20T08:12:02;95923.28;;;12.09;74.34
20105;BME280;10212;42.714;23.310;2022-10-20T08:17:02;95926.38;;;12.12;72.73
20105;BME280;10212;42.714;23.310;2022-10-20T08:22:03;95928.09;;;12.05;72.16
20105;BME280;10212;42.714;23.310;2022-10-20T08:27:03;95924.41;;;12.21;70.56
20105;BME280;10212;42.714;23.310;2022-10-20T08:32:04;95924.19;;;12.16;68.75
20105;BME280;10212;42.714;23.310;2022-10-20T08:37:04;95914.84;;;12.42;69.80
20105;BME280;10212;42.714;23.310;2022-10-20T08:42:05;95912.91;;;12.58;67.35
20105;BME280;10212;42.714;23.310;2022-10-20T08:47:13;95907.72;;;12.64;65.81
20105;BME280;10212;42.714;23.310;2022-10-20T08:52:15;95902.84;;;12.54;65.27
20105;BME280;10212;42.714;23.310;2022-10-20T08:57:20;95899.28;;;12.69;63.65
20105;BME280;10212;42.714;23.310;2022-10-20T09:02:21;95898.31;;;12.84;61.99
20105;BME280;10212;42.714;23.310;2022-10-20T09:12:28;95908.47;;;13.14;60.64
20105;BME280;10212;42.714;23.310;2022-10-20T09:17:29;95908.88;;;13.31;59.40
20105;BME280;10212;42.714;23.310;2022-10-20T09:22:30;95902.84;;;13.44;58.44
20105;BME280;10212;42.714;23.310;2022-10-20T09:27:34;95907.91;;;13.46;57.99
20105;BME280;10212;42.714;23.310;2022-10-20T09:32:36;95908.72;;;13.73;56.37
20105;BME280;10212;42.714;23.310;2022-10-20T09:37:36;95898.66;;;13.77;55.85
20105;BME280;10212;42.714;23.310;2022-10-20T09:42:37;95899.44;;;13.84;54.87
20105;BME280;10212;42.714;23.310;2022-10-20T09:47:41;95907.53;;;13.83;54.54
20105;BME280;10212;42.714;23.310;2022-10-20T09:52:42;95887.75;;;13.73;54.19
20105;BME280;10212;42.714;23.310;2022-10-20T09:57:46;95889.38;;;13.88;53.73
20105;BME280;10212;42.714;23.310;2022-10-20T10:02:47;95891.00;;;13.76;53.41
20105;BME280;10212;42.714;23.310;2022-10-20T10:07:58;95877.25;;;13.87;53.05
20105;BME280;10212;42.714;23.310;2022-10-20T10:12:59;95877.66;;;13.91;53.25
20105;BME280;10212;42.714;23.310;2022-10-20T10:17:59;95868.34;;;14.08;52.38
20105;BME280;10212;42.714;23.310;2022-10-20T10:23:21;95864.28;;;14.19;52.46
20105;BME280;10212;42.714;23.310;2022-10-20T10:33:28;95859.22;;;14.25;51.28
20105;BME280;10212;42.714;23.310;2022-10-20T10:38:29;95854.13;;;14.37;51.39
20105;BME280;10212;42.714;23.310;2022-10-20T10:53:56;95848.72;;;14.25;50.41
20105;BME280;10212;42.714;23.310;2022-10-20T10:59:04;95838.94;;;14.45;50.08
20105;BME280;10212;42.714;23.310;2022-10-20T11:14:18;95824.06;;;14.39;50.05
20105;BME280;10212;42.714;23.310;2022-10-20T11:29:30;95807.91;;;14.81;48.41
20105;BME280;10212;42.714;23.310;2022-10-20T11:45:29;95790.09;;;14.90;48.05
20105;BME280;10212;42.714;23.310;2022-10-20T11:50:30;95779.97;;;14.94;47.70
20105;BME280;10212;42.714;23.310;2022-10-20T12:16:11;95776.25;;;15.02;45.42
20105;BME280;10212;42.714;23.310;2022-10-20T12:21:11;95771.00;;;15.27;44.89
20105;BME280;10212;42.714;23.310;2022-10-20T12:36:50;95762.25;;;15.34;45.19
20105;BME280;10212;42.714;23.310;2022-10-20T12:42:05;95762.00;;;15.16;44.71
20105;BME280;10212;42.714;23.310;2022-10-20T12:47:08;95766.13;;;15.05;44.38
20105;BME280;10212;42.714;23.310;2022-10-20T12:52:18;95764.03;;;15.14;43.61
20105;BME280;10212;42.714;23.310;2022-10-20T13:02:50;95768.84;;;15.43;43.09
20105;BME280;10212;42.714;23.310;2022-10-20T13:23:13;95763.06;;;15.34;43.41
20105;BME280;10212;42.714;23.310;2022-10-20T13:28:16;95762.22;;;15.40;43.22
20105;BME280;10212;42.714;23.310;2022-10-20T13:33:20;95758.09;;;15.45;42.98
20105;BME280;10212;42.714;23.310;2022-10-20T13:38:23;95757.81;;;15.34;43.41
20105;BME280;10212;42.714;23.310;2022-10-20T13:53:48;95760.50;;;15.46;43.11
20105;BME280;10212;42.714;23.310;2022-10-20T13:58:57;95767.47;;;15.40;43.20
20105;BME280;10212;42.714;23.310;2022-10-20T14:03:58;95765.28;;;15.56;42.20
20105;BME280;10212;42.714;23.310;2022-10-20T14:09:08;95767.91;;;15.56;42.04
20105;BME280;10212;42.714;23.310;2022-10-20T14:14:11;95770.03;;;15.66;41.73
20105;BME280;10212;42.714;23.310;2022-10-20T14:19:12;95765.81;;;15.65;42.43
20105;BME280;10212;42.714;23.310;2022-10-20T14:24:27;95767.84;;;15.63;42.79
20105;BME280;10212;42.714;23.310;2022-10-20T14:29:30;95767.69;;;15.58;42.84
20105;BME280;10212;42.714;23.310;2022-10-20T14:34:33;95763.97;;;15.65;42.73
20105;BME280;10212;42.714;23.310;2022-10-20T14:39:34;95768.22;;;15.66;42.99
20105;BME280;10212;42.714;23.310;2022-10-20T14:44:35;95765.72;;;15.53;43.45
20105;BME280;10212;42.714;23.310;2022-10-20T14:49:36;95768.56;;;15.51;44.02
20105;BME280;10212;42.714;23.310;2022-10-20T14:54:39;95761.94;;;15.23;44.46
20105;BME280;10212;42.714;23.310;2022-10-20T14:59:50;95769.13;;;15.09;45.13
20105;BME280;10212;42.714;23.310;2022-10-20T15:04:51;95773.63;;;15.02;45.65
20105;BME280;10212;42.714;23.310;2022-10-20T15:09:52;95777.34;;;14.94;45.72
20105;BME280;10212;42.714;23.310;2022-10-20T15:15:04;95774.75;;;14.87;46.38
20105;BME280;10212;42.714;23.310;2022-10-20T15:25:24;95783.63;;;14.54;46.96
20105;BME280;10212;42.714;23.310;2022-10-20T15:30:26;95788.31;;;14.38;47.23
20105;BME280;10212;42.714;23.310;2022-10-20T15:35:26;95794.31;;;14.13;47.80
20105;BME280;10212;42.714;23.310;2022-10-20T15:40:29;95795.38;;;13.85;48.26
20105;BME280;10212;42.714;23.310;2022-10-20T15:45:31;95807.13;;;13.76;48.08
20105;BME280;10212;42.714;23.310;2022-10-20T15:50:33;95811.19;;;13.58;48.30
20105;BME280;10212;42.714;23.310;2022-10-20T15:55:34;95816.00;;;13.47;48.46
20105;BME280;10212;42.714;23.310;2022-10-20T16:00:36;95819.25;;;13.22;48.69
20105;BME280;10212;42.714;23.310;2022-10-20T16:05:37;95831.31;;;13.17;49.03
20105;BME280;10212;42.714;23.310;2022-10-20T16:10:37;95847.03;;;13.17;48.84
20105;BME280;10212;42.714;23.310;2022-10-20T16:15:38;95844.97;;;12.92;49.18
20105;BME280;10212;42.714;23.310;2022-10-20T16:20:38;95851.84;;;12.86;49.39
20105;BME280;10212;42.714;23.310;2022-10-20T16:25:39;95857.44;;;12.83;50.41
20105;BME280;10212;42.714;23.310;2022-10-20T16:30:39;95864.09;;;12.78;51.06
20105;BME280;10212;42.714;23.310;2022-10-20T16:35:40;95869.13;;;12.73;51.43
20105;BME280;10212;42.714;23.310;2022-10-20T16:40:41;95865.88;;;12.64;52.28
20105;BME280;10212;42.714;23.310;2022-10-20T16:45:42;95883.56;;;12.62;52.57
20105;BME280;10212;42.714;23.310;2022-10-20T16:50:42;95883.16;;;12.59;52.46
20105;BME280;10212;42.714;23.310;2022-10-20T16:55:49;95889.25;;;12.24;54.06
20105;BME280;10212;42.714;23.310;2022-10-20T17:01:00;95892.13;;;12.07;54.66
20105;BME280;10212;42.714;23.310;2022-10-20T17:06:05;95895.69;;;11.99;54.53
20105;BME280;10212;42.714;23.310;2022-10-20T17:11:06;95898.91;;;12.01;54.78
20105;BME280;10212;42.714;23.310;2022-10-20T17:16:11;95901.22;;;11.82;56.42
20105;BME280;10212;42.714;23.310;2022-10-20T17:21:12;95907.72;;;11.65;57.16
20105;BME280;10212;42.714;23.310;2022-10-20T17:26:14;95915.81;;;11.48;58.53
20105;BME280;10212;42.714;23.310;2022-10-20T17:31:16;95908.16;;;11.46;58.38
20105;BME280;10212;42.714;23.310;2022-10-20T17:36:17;95913.09;;;11.56;58.57
20105;BME280;10212;42.714;23.310;2022-10-20T17:41:18;95916.31;;;11.58;58.46
20105;BME280;10212;42.714;23.310;2022-10-20T17:46:19;95917.84;;;11.46;59.52
20105;BME280;10212;42.714;23.310;2022-10-20T17:51:20;95916.91;;;11.32;61.08
20105;BME280;10212;42.714;23.310;2022-10-20T17:56:22;95921.50;;;11.30;61.28
20105;BME280;10212;42.714;23.310;2022-10-20T18:01:24;95923.91;;;11.09;62.04
20105;BME280;10212;42.714;23.310;2022-10-20T18:06:25;95926.69;;;11.08;62.77
20105;BME280;10212;42.714;23.310;2022-10-20T18:11:27;95924.94;;;10.93;63.71
20105;BME280;10212;42.714;23.310;2022-10-20T18:16:29;95925.09;;;10.70;64.75
20105;BME280;10212;42.714;23.310;2022-10-20T18:21:29;95930.31;;;10.70;64.59
20105;BME280;10212;42.714;23.310;2022-10-20T18:26:31;95931.78;;;10.57;65.58
20105;BME280;10212;42.714;23.310;2022-10-20T18:31:32;95943.88;;;10.35;66.78
20105;BME280;10212;42.714;23.310;2022-10-20T18:36:35;95944.66;;;10.05;68.09
20105;BME280;10212;42.714;23.310;2022-10-20T18:41:36;95942.69;;;10.07;68.43
20105;BME280;10212;42.714;23.310;2022-10-20T18:46:37;95944.94;;;9.95;69.00
20105;BME280;10212;42.714;23.310;2022-10-20T18:51:38;95953.06;;;9.77;69.90
20105;BME280;10212;42.714;23.310;2022-10-20T18:56:39;95949.53;;;9.70;70.31
20105;BME280;10212;42.714;23.310;2022-10-20T19:01:41;95961.63;;;9.62;71.32
20105;BME280;10212;42.714;23.310;2022-10-20T19:06:42;95960.09;;;9.53;71.56
20105;BME280;10212;42.714;23.310;2022-10-20T19:11:43;95973.44;;;9.50;71.45
20105;BME280;10212;42.714;23.310;2022-10-20T19:16:44;95964.88;;;9.41;71.84
20105;BME280;10212;42.714;23.310;2022-10-20T19:21:48;95975.16;;;9.43;71.84
20105;BME280;10212;42.714;23.310;2022-10-20T19:26:52;95980.28;;;9.51;71.25
20105;BME280;10212;42.714;23.310;2022-10-20T19:31:54;95981.63;;;9.47;71.84
20105;BME280;10212;42.714;23.310;2022-10-20T19:36:55;95991.69;;;9.26;72.87
20105;BME280;10212;42.714;23.310;2022-10-20T19:41:57;95997.31;;;9.07;74.17
20105;BME280;10212;42.714;23.310;2022-10-20T19:46:59;96005.25;;;9.13;74.03
20105;BME280;10212;42.714;23.310;2022-10-20T19:51:59;96010.78;;;9.10;74.25
20105;BME280;10212;42.714;23.310;2022-10-20T19:57:00;96009.91;;;8.95;75.76
20105;BME280;10212;42.714;23.310;2022-10-20T20:02:00;96015.47;;;8.83;75.52
20105;BME280;10212;42.714;23.310;2022-10-20T20:07:01;96012.56;;;8.78;75.86
20105;BME280;10212;42.714;23.310;2022-10-20T20:12:01;96012.63;;;8.61;76.86
20105;BME280;10212;42.714;23.310;2022-10-20T20:17:02;96021.03;;;8.63;76.26
20105;BME280;10212;42.714;23.310;2022-10-20T20:22:02;96010.00;;;8.53;77.14
20105;BME280;10212;42.714;23.310;2022-10-20T20:27:03;96017.69;;;8.38;77.69
20105;BME280;10212;42.714;23.310;2022-10-20T20:32:03;96016.84;;;8.45;77.41
20105;BME280;10212;42.714;23.310;2022-10-20T20:37:04;96024.50;;;8.39;77.59
20105;BME280;10212;42.714;23.310;2022-10-20T20:42:04;96023.50;;;8.48;77.16
20105;BME280;10212;42.714;23.310;2022-10-20T20:47:04;96031.59;;;8.70;75.57
20105;BME280;10212;42.714;23.310;2022-10-20T20:52:05;96026.91;;;8.57;76.72
20105;BME280;10212;42.714;23.310;2022-10-20T20:57:05;96024.63;;;8.45;77.40
20105;BME280;10212;42.714;23.310;2022-10-20T21:02:05;96025.59;;;8.53;76.33
20105;BME280;10212;42.714;23.310;2022-10-20T21:07:06;96029.81;;;8.45;76.21
20105;BME280;10212;42.714;23.310;2022-10-20T21:12:07;96019.44;;;8.45;77.05
20105;BME280;10212;42.714;23.310;2022-10-20T21:17:07;96022.41;;;8.17;78.64
20105;BME280;10212;42.714;23.310;2022-10-20T21:22:07;96019.19;;;7.99;79.28
20105;BME280;10212;42.714;23.310;2022-10-20T21:27:08;96031.38;;;7.90;79.66
20105;BME280;10212;42.714;23.310;2022-10-20T21:32:08;96028.78;;;7.81;80.14
20105;BME280;10212;42.714;23.310;2022-10-20T21:37:09;96022.44;;;7.67;80.41
20105;BME280;10212;42.714;23.310;2022-10-20T21:42:09;96022.44;;;7.67;80.82
20105;BME280;10212;42.714;23.310;2022-10-20T21:47:09;96030.34;;;7.41;82.25
20105;BME280;10212;42.714;23.310;2022-10-20T21:52:09;96032.94;;;7.41;82.50
20105;BME280;10212;42.714;23.310;2022-10-20T21:57:10;96042.78;;;7.29;82.52
20105;BME280;10212;42.714;23.310;2022-10-20T22:02:10;96049.94;;;7.27;82.51
20105;BME280;10212;42.714;23.310;2022-10-20T22:07:12;96052.47;;;7.10;83.51
20105;BME280;10212;42.714;23.310;2022-10-20T22:12:13;96062.88;;;7.18;83.13
20105;BME280;10212;42.714;23.310;2022-10-20T22:17:13;96078.72;;;7.07;83.35
20105;BME280;10212;42.714;23.310;2022-10-20T22:22:14;96072.66;;;6.90;84.63
20105;BME280;10212;42.714;23.310;2022-10-20T22:27:14;96078.03;;;6.96;84.04
20105;BME280;10212;42.714;23.310;2022-10-20T22:32:15;96085.72;;;6.80;84.56
20105;BME280;10212;42.714;23.310;2022-10-20T22:37:15;96092.56;;;6.81;84.69
20105;BME280;10212;42.714;23.310;2022-10-20T22:42:15;96088.59;;;6.68;84.98
20105;BME280;10212;42.714;23.310;2022-10-20T22:47:16;96083.34;;;6.60;84.85
20105;BME280;10212;42.714;23.310;2022-10-20T22:52:16;96090.66;;;6.38;85.66
20105;BME280;10212;42.714;23.310;2022-10-20T22:57:16;96088.50;;;6.33;85.66
20105;BME280;10212;42.714;23.310;2022-10-20T23:02:17;96087.16;;;6.21;86.45
20105;BME280;10212;42.714;23.310;2022-10-20T23:07:17;96083.44;;;6.23;86.16
20105;BME280;10212;42.714;23.310;2022-10-20T23:12:18;96097.34;;;6.22;86.66
20105;BME280;10212;42.714;23.310;2022-10-20T23:17:18;96096.03;;;6.18;86.64
20105;BME280;10212;42.714;23.310;2022-10-20T23:22:19;96096.44;;;6.32;86.99
20105;BME280;10212;42.714;23.310;2022-10-20T23:27:19;96101.25;;;6.26;86.51
20105;BME280;10212;42.714;23.310;2022-10-20T23:32:19;96102.81;;;6.19;86.72
20105;BME280;10212;42.714;23.310;2022-10-20T23:37:20;96105.50;;;6.27;86.47
20105;BME280;10212;42.714;23.310;2022-10-20T23:42:22;96104.63;;;6.19;86.90
20105;BME280;10212;42.714;23.310;2022-10-20T23:47:23;96108.09;;;6.09;86.95
20105;BME280;10212;42.714;23.310;2022-10-20T23:52:23;96109.94;;;6.17;86.87
20105;BME280;10212;42.714;23.310;2022-10-20T23:57:23;96097.13;;;5.97;87.58
